sensor_id;sensor_type;location;lat;lon;timestamp;P1;durP1;ratioP1;P2;durP2;ratioP2
39620;SDS011;25309;48.686;9.170;2023-04-24T00:01:06;1.43;;;0.90;;
39620;SDS011;25309;48.686;9.170;2023-04-24T00:03:35;1.70;;;0.80;;
39620;SDS011;25309;48.686;9.170;2023-04-24T00:06:03;1.10;;;0.80;;
39620;SDS011;25309;48.686;9.170;2023-04-24T00:08:31;1.67;;;0.90;;
39620;SDS011;25309;48.686;9.170;2023-04-24T00:10:58;3.17;;;1.30;;
39620;SDS011;25309;48.686;9.170;2023-04-24T00:13:25;2.97;;;0.80;;
39620;SDS011;25309;48.686;9.170;2023-04-24T00:15:54;1.73;;;0.90;;
39620;SDS011;25309;48.686;9.170;2023-04-24T00:18:21;1.93;;;1.00;;
39620;SDS011;25309;48.686;9.170;2023-04-24T00:20:49;1.20;;;0.80;;
39620;SDS011;25309;48.686;9.170;2023-04-24T00:23:17;1.80;;;0.90;;
39620;SDS011;25309;48.686;9.170;2023-04-24T00:25:43;2.43;;;1.10;;
39620;SDS011;25309;48.686;9.170;2023-04-24T00:28:10;2.23;;;0.90;;
39620;SDS011;25309;48.686;9.170;2023-04-24T00:30:37;2.30;;;0.90;;
39620;SDS011;25309;48.686;9.170;2023-04-24T00:33:04;1.30;;;0.80;;
39620;SDS011;25309;48.686;9.170;2023-04-24T00:35:31;1.60;;;0.80;;
39620;SDS011;25309;48.686;9.170;2023-04-24T00:37:59;1.83;;;1.10;;
39620;SDS011;25309;48.686;9.170;2023-04-24T00:40:26;1.50;;;0.90;;
39620;SDS011;25309;48.686;9.170;2023-04-24T00:42:54;1.03;;;0.70;;
39620;SDS011;25309;48.686;9.170;2023-04-24T00:45:22;1.50;;;0.70;;
39620;SDS011;25309;48.686;9.170;2023-04-24T00:47:49;2.03;;;0.73;;
39620;SDS011;25309;48.686;9.170;2023-04-24T00:50:18;1.00;;;0.70;;
39620;SDS011;25309;48.686;9.170;2023-04-24T00:52:47;2.33;;;0.97;;
39620;SDS011;25309;48.686;9.170;2023-04-24T00:55:16;3.07;;;0.90;;
39620;SDS011;25309;48.686;9.170;2023-04-24T00:57:43;1.30;;;0.70;;
39620;SDS011;25309;48.686;9.170;2023-04-24T01:00:11;3.27;;;1.00;;
39620;SDS011;25309;48.686;9.170;2023-04-24T01:02:41;1.53;;;0.93;;
39620;SDS011;25309;48.686;9.170;2023-04-24T01:05:12;2.60;;;0.70;;
39620;SDS011;25309;48.686;9.170;2023-04-24T01:07:39;1.87;;;1.00;;
39620;SDS011;25309;48.686;9.170;2023-04-24T01:10:10;1.80;;;0.70;;
39620;SDS011;25309;48.686;9.170;2023-04-24T01:12:40;1.07;;;0.60;;
39620;SDS011;25309;48.686;9.170;2023-04-24T01:15:08;1.73;;;0.90;;
39620;SDS011;25309;48.686;9.170;2023-04-24T01:17:35;1.03;;;0.70;;
39620;SDS011;25309;48.686;9.170;2023-04-24T01:20:03;0.90;;;0.70;;
39620;SDS011;25309;48.686;9.170;2023-04-24T01:22:33;2.10;;;0.90;;
39620;SDS011;25309;48.686;9.170;2023-04-24T01:25:01;0.80;;;0.60;;
39620;SDS011;25309;48.686;9.170;2023-04-24T01:27:29;2.23;;;0.80;;
39620;SDS011;25309;48.686;9.170;2023-04-24T01:29:56;1.07;;;0.80;;
39620;SDS011;25309;48.686;9.170;2023-04-24T01:32:23;1.87;;;0.77;;
39620;SDS011;25309;48.686;9.170;2023-04-24T01:34:50;1.13;;;0.73;;
39620;SDS011;25309;48.686;9.170;2023-04-24T01:37:18;2.90;;;0.80;;
39620;SDS011;25309;48.686;9.170;2023-04-24T01:39:46;3.97;;;0.93;;
39620;SDS011;25309;48.686;9.170;2023-04-24T01:42:13;3.23;;;0.63;;
39620;SDS011;25309;48.686;9.170;2023-04-24T01:44:41;1.27;;;0.60;;
39620;SDS011;25309;48.686;9.170;2023-04-24T01:47:08;0.90;;;0.67;;
39620;SDS011;25309;48.686;9.170;2023-04-24T01:49:35;2.70;;;0.67;;
39620;SDS011;25309;48.686;9.170;2023-04-24T01:52:04;1.90;;;0.70;;
39620;SDS011;25309;48.686;9.170;2023-04-24T01:54:31;1.93;;;0.80;;
39620;SDS011;25309;48.686;9.170;2023-04-24T01:56:59;3.03;;;0.90;;
39620;SDS011;25309;48.686;9.170;2023-04-24T01:59:28;1.93;;;1.03;;
39620;SDS011;25309;48.686;9.170;2023-04-24T02:01:56;2.07;;;0.93;;
39620;SDS011;25309;48.686;9.170;2023-04-24T02:04:23;1.13;;;0.60;;
39620;SDS011;25309;48.686;9.170;2023-04-24T02:06:50;1.80;;;0.77;;
39620;SDS011;25309;48.686;9.170;2023-04-24T02:09:17;1.60;;;0.80;;
39620;SDS011;25309;48.686;9.170;2023-04-24T02:11:44;1.07;;;0.77;;
39620;SDS011;25309;48.686;9.170;2023-04-24T02:14:13;0.63;;;0.60;;
39620;SDS011;25309;48.686;9.170;2023-04-24T02:16:40;2.30;;;0.70;;
39620;SDS011;25309;48.686;9.170;2023-04-24T02:19:07;2.43;;;0.80;;
39620;SDS011;25309;48.686;9.170;2023-04-24T02:21:34;2.63;;;0.70;;
39620;SDS011;25309;48.686;9.170;2023-04-24T02:24:01;2.27;;;0.70;;
39620;SDS011;25309;48.686;9.170;2023-04-24T02:26:28;0.70;;;0.60;;
39620;SDS011;25309;48.686;9.170;2023-04-24T02:28:55;1.87;;;0.70;;
39620;SDS011;25309;48.686;9.170;2023-04-24T02:31:23;2.87;;;0.70;;
39620;SDS011;25309;48.686;9.170;2023-04-24T02:33:50;1.87;;;0.80;;
39620;SDS011;25309;48.686;9.170;2023-04-24T02:36:17;1.37;;;0.67;;
39620;SDS011;25309;48.686;9.170;2023-04-24T02:38:44;2.60;;;0.63;;
39620;SDS011;25309;48.686;9.170;2023-04-24T02:41:12;1.27;;;0.70;;
39620;SDS011;25309;48.686;9.170;2023-04-24T02:43:39;1.17;;;0.70;;
39620;SDS011;25309;48.686;9.170;2023-04-24T02:46:06;1.90;;;1.20;;
39620;SDS011;25309;48.686;9.170;2023-04-24T02:48:34;1.40;;;0.80;;
39620;SDS011;25309;48.686;9.170;2023-04-24T02:51:01;0.60;;;0.60;;
39620;SDS011;25309;48.686;9.170;2023-04-24T02:53:28;1.73;;;0.67;;
39620;SDS011;25309;48.686;9.170;2023-04-24T02:55:56;1.57;;;0.60;;
39620;SDS011;25309;48.686;9.170;2023-04-24T02:58:23;0.70;;;0.70;;
39620;SDS011;25309;48.686;9.170;2023-04-24T03:00:52;1.47;;;0.70;;
39620;SDS011;25309;48.686;9.170;2023-04-24T03:03:19;2.73;;;0.80;;
39620;SDS011;25309;48.686;9.170;2023-04-24T03:05:48;1.20;;;0.73;;
39620;SDS011;25309;48.686;9.170;2023-04-24T03:08:15;1.60;;;0.80;;
39620;SDS011;25309;48.686;9.170;2023-04-24T03:10:42;1.53;;;0.67;;
39620;SDS011;25309;48.686;9.170;2023-04-24T03:13:13;0.80;;;0.57;;
39620;SDS011;25309;48.686;9.170;2023-04-24T03:15:42;1.37;;;0.73;;
39620;SDS011;25309;48.686;9.170;2023-04-24T03:18:09;0.60;;;0.60;;
39620;SDS011;25309;48.686;9.170;2023-04-24T03:20:36;0.70;;;0.70;;
39620;SDS011;25309;48.686;9.170;2023-04-24T03:23:05;1.67;;;0.70;;
39620;SDS011;25309;48.686;9.170;2023-04-24T03:25:32;1.60;;;0.60;;
39620;SDS011;25309;48.686;9.170;2023-04-24T03:27:59;1.23;;;0.73;;
39620;SDS011;25309;48.686;9.170;2023-04-24T03:30:38;2.37;;;0.50;;
39620;SDS011;25309;48.686;9.170;2023-04-24T03:33:07;1.13;;;0.70;;
39620;SDS011;25309;48.686;9.170;2023-04-24T03:35:37;1.30;;;0.70;;
39620;SDS011;25309;48.686;9.170;2023-04-24T03:38:09;1.03;;;0.70;;
39620;SDS011;25309;48.686;9.170;2023-04-24T03:40:55;2.03;;;0.77;;
39620;SDS011;25309;48.686;9.170;2023-04-24T03:43:33;1.50;;;0.60;;
39620;SDS011;25309;48.686;9.170;2023-04-24T03:46:01;1.27;;;0.90;;
39620;SDS011;25309;48.686;9.170;2023-04-24T03:48:31;1.77;;;0.63;;
39620;SDS011;25309;48.686;9.170;2023-04-24T03:50:58;1.27;;;0.70;;
39620;SDS011;25309;48.686;9.170;2023-04-24T03:53:26;1.07;;;0.80;;
39620;SDS011;25309;48.686;9.170;2023-04-24T03:55:54;1.63;;;0.80;;
39620;SDS011;25309;48.686;9.170;2023-04-24T03:58:22;1.17;;;0.70;;
39620;SDS011;25309;48.686;9.170;2023-04-24T04:00:50;1.10;;;0.60;;
39620;SDS011;25309;48.686;9.170;2023-04-24T04:03:37;2.50;;;0.90;;
39620;SDS011;25309;48.686;9.170;2023-04-24T04:06:05;1.93;;;0.90;;
39620;SDS011;25309;48.686;9.170;2023-04-24T04:08:34;1.93;;;0.80;;
39620;SDS011;25309;48.686;9.170;2023-04-24T04:11:01;1.23;;;0.70;;
39620;SDS011;25309;48.686;9.170;2023-04-24T04:13:30;0.60;;;0.60;;
39620;SDS011;25309;48.686;9.170;2023-04-24T04:15:58;1.93;;;0.60;;
39620;SDS011;25309;48.686;9.170;2023-04-24T04:18:25;2.07;;;0.50;;
39620;SDS011;25309;48.686;9.170;2023-04-24T04:20:52;1.03;;;0.80;;
39620;SDS011;25309;48.686;9.170;2023-04-24T04:23:19;0.57;;;0.47;;
39620;SDS011;25309;48.686;9.170;2023-04-24T04:25:57;1.10;;;0.50;;
39620;SDS011;25309;48.686;9.170;2023-04-24T04:28:35;1.73;;;0.70;;
39620;SDS011;25309;48.686;9.170;2023-04-24T04:31:04;0.90;;;0.60;;
39620;SDS011;25309;48.686;9.170;2023-04-24T04:33:31;2.13;;;0.67;;
39620;SDS011;25309;48.686;9.170;2023-04-24T04:35:58;1.80;;;0.60;;
39620;SDS011;25309;48.686;9.170;2023-04-24T04:38:29;1.67;;;0.70;;
39620;SDS011;25309;48.686;9.170;2023-04-24T04:41:05;2.20;;;0.90;;
39620;SDS011;25309;48.686;9.170;2023-04-24T04:43:32;1.57;;;1.00;;
39620;SDS011;25309;48.686;9.170;2023-04-24T04:46:00;1.60;;;0.90;;
39620;SDS011;25309;48.686;9.170;2023-04-24T04:48:48;1.67;;;1.17;;
39620;SDS011;25309;48.686;9.170;2023-04-24T04:51:15;1.93;;;1.10;;
39620;SDS011;25309;48.686;9.170;2023-04-24T04:53:42;2.47;;;1.10;;
39620;SDS011;25309;48.686;9.170;2023-04-24T04:56:10;1.70;;;1.30;;
39620;SDS011;25309;48.686;9.170;2023-04-24T04:58:43;1.33;;;1.00;;
39620;SDS011;25309;48.686;9.170;2023-04-24T05:01:13;1.17;;;1.07;;
39620;SDS011;25309;48.686;9.170;2023-04-24T05:03:44;1.83;;;1.20;;
39620;SDS011;25309;48.686;9.170;2023-04-24T05:06:14;2.83;;;1.27;;
39620;SDS011;25309;48.686;9.170;2023-04-24T05:08:42;2.03;;;1.20;;
39620;SDS011;25309;48.686;9.170;2023-04-24T05:11:20;1.57;;;0.90;;
39620;SDS011;25309;48.686;9.170;2023-04-24T05:13:47;1.73;;;1.23;;
39620;SDS011;25309;48.686;9.170;2023-04-24T05:16:18;1.50;;;1.13;;
39620;SDS011;25309;48.686;9.170;2023-04-24T05:18:47;2.17;;;1.20;;
39620;SDS011;25309;48.686;9.170;2023-04-24T05:21:18;1.50;;;1.30;;
39620;SDS011;25309;48.686;9.170;2023-04-24T05:23:48;1.73;;;1.20;;
39620;SDS011;25309;48.686;9.170;2023-04-24T05:26:24;3.07;;;1.43;;
39620;SDS011;25309;48.686;9.170;2023-04-24T05:28:53;2.07;;;1.30;;
39620;SDS011;25309;48.686;9.170;2023-04-24T05:31:20;1.33;;;1.23;;
39620;SDS011;25309;48.686;9.170;2023-04-24T05:33:48;1.63;;;1.17;;
39620;SDS011;25309;48.686;9.170;2023-04-24T05:36:15;1.50;;;1.27;;
39620;SDS011;25309;48.686;9.170;2023-04-24T05:38:42;3.17;;;1.50;;
39620;SDS011;25309;48.686;9.170;2023-04-24T05:41:09;3.10;;;1.47;;
39620;SDS011;25309;48.686;9.170;2023-04-24T05:43:37;2.80;;;1.67;;
39620;SDS011;25309;48.686;9.170;2023-04-24T05:46:04;2.67;;;1.30;;
39620;SDS011;25309;48.686;9.170;2023-04-24T05:48:31;2.10;;;1.50;;
39620;SDS011;25309;48.686;9.170;2023-04-24T05:51:00;3.93;;;2.63;;
39620;SDS011;25309;48.686;9.170;2023-04-24T05:53:27;3.27;;;2.30;;
39620;SDS011;25309;48.686;9.170;2023-04-24T05:55:55;4.00;;;2.40;;
39620;SDS011;25309;48.686;9.170;2023-04-24T05:58:22;4.10;;;3.00;;
39620;SDS011;25309;48.686;9.170;2023-04-24T06:00:50;3.70;;;2.67;;
39620;SDS011;25309;48.686;9.170;2023-04-24T06:03:18;2.40;;;2.10;;
39620;SDS011;25309;48.686;9.170;2023-04-24T06:05:47;2.77;;;1.73;;
39620;SDS011;25309;48.686;9.170;2023-04-24T06:08:16;2.00;;;1.70;;
